Time;durP1;ratioP1;P1;durP2;ratioP2;P2;SDS_P1;SDS_P2;PMS_P1;PMS_P2;Temp;Humidity;BMP_temperature;BMP_pressure;BME280_temperature;BME280_humidity;BME280_pressure;Samples;Min_cycle;Max_cycle;Signal;HPM_P1;HPM_P2
2023/07/06 00:01:33;;;;;;;;;;;24.90;43.80;;;;;;1575772;74;825;-60
2023/07/06 00:03:36;;;;;;;;;;;24.80;43.70;;;;;;1584184;74;758;-61
2023/07/06 00:05:39;;;;;;;;;;;24.80;43.70;;;;;;1576900;74;794;-60
2023/07/06 00:07:41;;;;;;;;;;;24.90;43.70;;;;;;1577532;74;2156;-61
2023/07/06 00:09:44;;;;;;;;;;;24.90;43.60;;;;;;1588346;74;1115;-60
2023/07/06 00:11:47;;;;;;;;;;;24.90;43.50;;;;;;1579685;74;684;-62
2023/07/06 00:13:49;;;;;;;;;;;24.90;43.60;;;;;;1579057;74;1536;-62
2023/07/06 00:15:51;;;;;;;;;;;24.90;43.40;;;;;;1581513;74;732;-63
2023/07/06 00:17:53;;;;;;;;;;;24.90;43.70;;;;;;1584329;74;745;-63
2023/07/06 00:19:55;;;;;;;;;;;24.90;43.50;;;;;;1576318;74;1118;-63
2023/07/06 00:21:57;;;;;;;;;;;24.80;43.30;;;;;;1593743;74;782;-63
2023/07/06 00:24:00;;;;;;;;;;;24.90;43.30;;;;;;1572382;74;695;-63
2023/07/06 00:26:02;;;;;;;;;;;25.00;43.40;;;;;;1580341;74;1911;-63
2023/07/06 00:28:04;;;;;;;;;;;24.60;43.20;;;;;;1578941;74;1571;-63
2023/07/06 00:30:18;;;;;;;;;;;24.90;43.10;;;;;;1587796;74;737;-63
2023/07/06 00:32:28;;;;;;;;;;;25.00;43.40;;;;;;1576244;74;1651;-64
2023/07/06 00:34:36;;;;;;;;;;;25.00;43.40;;;;;;1591597;74;692;-63
2023/07/06 00:36:38;;;;;;;;;;;24.90;43.40;;;;;;1588798;74;686;-63
2023/07/06 00:38:40;;;;;;;;;;;24.90;43.10;;;;;;1568778;74;1146;-63
2023/07/06 00:40:43;;;;;;;;;;;24.90;43.10;;;;;;1577001;74;728;-62
2023/07/06 00:42:45;;;;;;;;;;;24.90;43.10;;;;;;1566063;74;1530;-66
2023/07/06 00:44:52;;;;;;;;;;;24.90;43.10;;;;;;1584146;74;667;-63
2023/07/06 00:46:55;;;;;;;;;;;24.90;43.00;;;;;;1585625;74;1911;-62
2023/07/06 00:48:57;;;;;;;;;;;25.00;42.90;;;;;;1582471;74;1137;-61
2023/07/06 00:51:02;;;;;;;;;;;24.90;43.30;;;;;;1577072;74;1066;-61
2023/07/06 00:53:06;;;;;;;;;;;25.00;43.60;;;;;;1569909;74;797;-61
2023/07/06 00:55:08;;;;;;;;;;;24.90;43.40;;;;;;1575465;74;1490;-61
2023/07/06 00:57:11;;;;;;;;;;;24.90;43.10;;;;;;1576430;74;742;-61
2023/07/06 00:59:14;;;;;;;;;;;25.00;43.10;;;;;;1562759;74;1105;-61
2023/07/06 01:01:19;;;;;;;;;;;25.00;42.90;;;;;;1576633;74;712;-61
2023/07/06 01:03:21;;;;;;;;;;;25.00;43.00;;;;;;1575848;74;857;-61
2023/07/06 01:05:23;;;;;;;;;;;25.00;42.90;;;;;;1569261;74;725;-61
2023/07/06 01:07:25;;;;;;;;;;;24.90;43.40;;;;;;1563275;74;1942;-61
2023/07/06 01:09:32;;;;;;;;;;;24.90;43.20;;;;;;1569109;74;1519;-61
2023/07/06 01:11:31;;;;;;;;;;;24.90;43.10;;;;;;1575629;74;1593;-61
2023/07/06 01:13:33;;;;;;;;;;;24.90;43.00;;;;;;1580902;74;810;-61
2023/07/06 01:15:37;;;;;;;;;;;24.90;43.10;;;;;;1583135;74;730;-61
2023/07/06 01:17:53;;;;;;;;;;;24.90;43.10;;;;;;1584121;74;693;-63
2023/07/06 01:19:59;;;;;;;;;;;24.90;43.10;;;;;;1566448;74;1155;-61
2023/07/06 01:22:12;;;;;;;;;;;24.90;43.10;;;;;;1571389;74;1655;-60
2023/07/06 01:24:14;;;;;;;;;;;24.90;43.00;;;;;;1575553;74;1604;-61
2023/07/06 01:26:17;;;;;;;;;;;24.90;42.90;;;;;;1505275;74;1935;-61
2023/07/06 01:28:30;;;;;;;;;;;24.90;43.00;;;;;;1578022;74;1177;-61
2023/07/06 01:30:52;;;;;;;;;;;24.90;42.90;;;;;;1572281;74;1767;-61
2023/07/06 01:32:57;;;;;;;;;;;24.90;43.00;;;;;;1584728;74;1940;-61
2023/07/06 01:35:13;;;;;;;;;;;24.90;43.00;;;;;;1577770;74;948;-61
2023/07/06 01:37:17;;;;;;;;;;;24.90;43.00;;;;;;1575804;74;1312;-60
2023/07/06 01:39:23;;;;;;;;;;;24.90;43.60;;;;;;1565116;74;1177;-61
2023/07/06 01:41:27;;;;;;;;;;;24.80;43.60;;;;;;1573086;74;717;-61
2023/07/06 01:43:29;;;;;;;;;;;24.80;43.60;;;;;;1567607;74;723;-60
2023/07/06 01:45:31;;;;;;;;;;;24.90;43.40;;;;;;1574036;74;665;-61
2023/07/06 01:47:34;;;;;;;;;;;24.80;43.20;;;;;;1581800;74;1931;-61
2023/07/06 01:49:36;;;;;;;;;;;24.90;43.80;;;;;;1578759;74;1162;-61
2023/07/06 01:51:43;;;;;;;;;;;24.80;43.10;;;;;;1573292;74;1523;-61
2023/07/06 01:53:49;;;;;;;;;;;24.90;43.30;;;;;;1582983;74;1772;-61
2023/07/06 01:55:53;;;;;;;;;;;24.90;43.20;;;;;;1577312;74;2114;-61
2023/07/06 01:58:09;;;;;;;;;;;24.90;43.60;;;;;;1584168;74;736;-62
2023/07/06 02:00:14;;;;;;;;;;;24.80;43.40;;;;;;1575276;74;780;-62
2023/07/06 02:02:16;;;;;;;;;;;24.80;43.30;;;;;;1575470;74;1665;-66
2023/07/06 02:04:23;;;;;;;;;;;24.80;43.60;;;;;;1573421;74;751;-61
2023/07/06 02:06:22;;;;;;;;;;;24.80;43.30;;;;;;1584415;74;1946;-62
2023/07/06 02:08:24;;;;;;;;;;;24.80;43.10;;;;;;1588063;74;1130;-62
2023/07/06 02:10:26;;;;;;;;;;;24.90;43.40;;;;;;1588247;74;777;-61
2023/07/06 02:12:28;;;;;;;;;;;24.90;43.20;;;;;;1573875;74;778;-61
2023/07/06 02:14:31;;;;;;;;;;;24.90;43.30;;;;;;1580274;74;716;-61
2023/07/06 02:16:33;;;;;;;;;;;24.90;43.30;;;;;;1585192;74;706;-61
2023/07/06 02:18:35;;;;;;;;;;;24.80;43.10;;;;;;1583943;74;1138;-61
2023/07/06 02:20:37;;;;;;;;;;;24.90;43.10;;;;;;1576775;74;1502;-61
2023/07/06 02:22:40;;;;;;;;;;;24.80;43.30;;;;;;1586581;74;760;-61
2023/07/06 02:24:43;;;;;;;;;;;24.80;42.90;;;;;;1586399;74;720;-60
2023/07/06 02:26:45;;;;;;;;;;;24.80;43.30;;;;;;1577072;74;1924;-61
2023/07/06 02:28:47;;;;;;;;;;;24.80;43.30;;;;;;1585598;74;1095;-61
2023/07/06 02:30:50;;;;;;;;;;;24.80;43.40;;;;;;1578927;74;785;-61
2023/07/06 02:32:52;;;;;;;;;;;24.80;43.50;;;;;;1577745;74;728;-61
2023/07/06 02:34:54;;;;;;;;;;;24.80;43.40;;;;;;1580276;74;1553;-61
2023/07/06 02:36:56;;;;;;;;;;;24.80;43.20;;;;;;1581371;74;729;-61
2023/07/06 02:38:59;;;;;;;;;;;24.80;43.10;;;;;;1578783;74;1101;-63
2023/07/06 02:41:04;;;;;;;;;;;24.80;43.00;;;;;;1582580;74;711;-61
2023/07/06 02:43:07;;;;;;;;;;;24.80;43.00;;;;;;1581339;74;777;-61
2023/07/06 02:45:09;;;;;;;;;;;24.80;43.10;;;;;;1573037;74;769;-62
2023/07/06 02:47:11;;;;;;;;;;;24.80;43.40;;;;;;1582466;74;1942;-60
2023/07/06 02:49:13;;;;;;;;;;;24.90;43.50;;;;;;1582886;74;1562;-60
2023/07/06 02:51:15;;;;;;;;;;;24.90;43.10;;;;;;1569947;74;1100;-61
2023/07/06 02:53:17;;;;;;;;;;;24.90;43.10;;;;;;1579420;74;814;-61
2023/07/06 02:55:22;;;;;;;;;;;24.80;42.90;;;;;;1578166;74;680;-61
2023/07/06 02:57:23;;;;;;;;;;;24.90;43.00;;;;;;1575630;74;1665;-61
2023/07/06 02:59:25;;;;;;;;;;;24.90;43.00;;;;;;1586372;74;1181;-61
2023/07/06 03:01:27;;;;;;;;;;;24.80;42.80;;;;;;1581481;74;671;-61
2023/07/06 03:03:28;;;;;;;;;;;24.90;42.80;;;;;;1581673;74;1446;-63
2023/07/06 03:05:33;;;;;;;;;;;24.90;42.80;;;;;;1577683;74;779;-62
2023/07/06 03:07:34;;;;;;;;;;;24.80;42.60;;;;;;1580045;74;1929;-61
2023/07/06 03:09:36;;;;;;;;;;;24.90;42.60;;;;;;1581444;74;1145;-61
2023/07/06 03:11:38;;;;;;;;;;;24.80;42.60;;;;;;1580751;74;726;-62
2023/07/06 03:13:40;;;;;;;;;;;24.90;42.90;;;;;;1588786;74;809;-60
2023/07/06 03:15:43;;;;;;;;;;;24.80;42.70;;;;;;1577329;74;1556;-62
2023/07/06 03:17:48;;;;;;;;;;;24.80;42.90;;;;;;1575868;73;825;-62
2023/07/06 03:19:51;;;;;;;;;;;24.80;43.30;;;;;;1587914;74;1147;-62
2023/07/06 03:21:58;;;;;;;;;;;24.80;43.40;;;;;;1583140;74;741;-62
2023/07/06 03:23:57;;;;;;;;;;;24.90;43.10;;;;;;1578099;74;1621;-62
2023/07/06 03:25:59;;;;;;;;;;;25.00;42.70;;;;;;1579833;74;758;-62
2023/07/06 03:28:01;;;;;;;;;;;25.00;43.10;;;;;;1569165;74;1917;-62
2023/07/06 03:30:09;;;;;;;;;;;25.00;42.60;;;;;;1582494;74;1565;-62
2023/07/06 03:32:08;;;;;;;;;;;25.00;42.90;;;;;;1579837;74;1683;-62
2023/07/06 03:34:10;;;;;;;;;;;25.00;42.80;;;;;;1574581;74;758;-62
2023/07/06 03:36:12;;;;;;;;;;;25.00;42.80;;;;;;1581565;74;709;-62
2023/07/06 03:38:13;;;;;;;;;;;24.90;42.60;;;;;;1577567;74;1159;-62
2023/07/06 03:40:15;;;;;;;;;;;25.00;42.60;;;;;;1588977;74;715;-62
2023/07/06 03:42:17;;;;;;;;;;;25.00;42.50;;;;;;1579897;74;707;-61
2023/07/06 03:44:21;;;;;;;;;;;25.00;42.60;;;;;;1588815;74;1522;-62
2023/07/06 03:46:24;;;;;;;;;;;24.90;42.80;;;;;;1579349;74;1421;-62
2023/07/06 03:48:26;;;;;;;;;;;24.90;43.00;;;;;;1575470;74;1922;-62
2023/07/06 03:50:28;;;;;;;;;;;24.90;42.90;;;;;;1572752;74;770;-62
2023/07/06 03:52:30;;;;;;;;;;;24.80;43.00;;;;;;1567089;74;928;-62
2023/07/06 03:54:34;;;;;;;;;;;24.80;43.00;;;;;;1558792;74;604;-62
2023/07/06 03:56:37;;;;;;;;;;;24.90;42.90;;;;;;1566127;74;1479;-63
2023/07/06 03:58:39;;;;;;;;;;;24.90;43.10;;;;;;1564509;74;1593;-62
2023/07/06 04:00:41;;;;;;;;;;;24.80;42.90;;;;;;1559940;74;721;-62
2023/07/06 04:02:43;;;;;;;;;;;24.80;42.90;;;;;;1558845;74;728;-62
2023/07/06 04:04:45;;;;;;;;;;;24.80;42.90;;;;;;1563540;74;700;-62
2023/07/06 04:06:47;;;;;;;;;;;24.80;43.10;;;;;;1559396;74;716;-62
2023/07/06 04:08:49;;;;;;;;;;;24.80;43.10;;;;;;1564662;74;1945;-61
2023/07/06 04:10:51;;;;;;;;;;;24.80;43.10;;;;;;1561111;74;772;-61
2023/07/06 04:12:53;;;;;;;;;;;24.80;43.10;;;;;;1571948;74;1363;-62
2023/07/06 04:14:56;;;;;;;;;;;24.80;43.30;;;;;;1557451;74;737;-61
2023/07/06 04:16:58;;;;;;;;;;;24.80;43.00;;;;;;1566628;74;922;-59
2023/07/06 04:18:59;;;;;;;;;;;24.80;43.00;;;;;;1557199;74;1131;-60
2023/07/06 04:21:01;;;;;;;;;;;24.70;43.30;;;;;;1562003;74;815;-60
2023/07/06 04:23:03;;;;;;;;;;;24.80;43.40;;;;;;1562768;74;755;-61
2023/07/06 04:25:05;;;;;;;;;;;24.80;43.10;;;;;;1557529;74;724;-60
2023/07/06 04:27:07;;;;;;;;;;;24.80;43.30;;;;;;1556913;74;1601;-60
2023/07/06 04:29:09;;;;;;;;;;;24.80;43.30;;;;;;1563282;74;1926;-60
2023/07/06 04:31:11;;;;;;;;;;;24.80;43.20;;;;;;1566022;74;706;-61
2023/07/06 04:33:14;;;;;;;;;;;24.70;43.20;;;;;;1565148;74;723;-60
2023/07/06 04:35:17;;;;;;;;;;;24.80;43.50;;;;;;1565295;74;560;-60
2023/07/06 04:37:19;;;;;;;;;;;24.80;43.40;;;;;;1557088;74;751;-60
2023/07/06 04:39:21;;;;;;;;;;;24.80;43.10;;;;;;1560297;74;1132;-60
2023/07/06 04:41:23;;;;;;;;;;;24.80;43.10;;;;;;1548432;74;1267;-61
2023/07/06 04:43:26;;;;;;;;;;;24.80;43.50;;;;;;1570000;74;770;-61
2023/07/06 04:45:28;;;;;;;;;;;24.70;43.80;;;;;;1555283;74;731;-61
2023/07/06 04:47:33;;;;;;;;;;;24.60;43.80;;;;;;1561994;74;1944;-66
2023/07/06 04:49:34;;;;;;;;;;;24.70;43.60;;;;;;1565979;74;1693;-61
2023/07/06 04:51:36;;;;;;;;;;;24.80;43.30;;;;;;1565114;74;1054;-61
2023/07/06 04:53:38;;;;;;;;;;;24.80;43.40;;;;;;1570476;74;753;-61
2023/07/06 04:55:40;;;;;;;;;;;24.80;43.50;;;;;;1575034;74;1580;-59
2023/07/06 04:57:42;;;;;;;;;;;24.80;43.40;;;;;;1590513;74;778;-61
2023/07/06 04:59:44;;;;;;;;;;;24.80;43.40;;;;;;1579731;74;1167;-61
2023/07/06 05:01:45;;;;;;;;;;;24.90;43.60;;;;;;1580157;74;782;-61
2023/07/06 05:03:47;;;;;;;;;;;24.90;43.70;;;;;;1582311;74;575;-60
2023/07/06 05:05:49;;;;;;;;;;;24.80;43.60;;;;;;1580058;74;686;-62
2023/07/06 05:07:51;;;;;;;;;;;24.80;43.40;;;;;;1583656;74;1932;-61
2023/07/06 05:09:53;;;;;;;;;;;24.90;43.60;;;;;;1592405;74;1497;-60
2023/07/06 05:11:56;;;;;;;;;;;24.80;43.70;;;;;;1582822;74;795;-58
2023/07/06 05:13:58;;;;;;;;;;;24.80;43.60;;;;;;1579365;74;782;-58
2023/07/06 05:15:59;;;;;;;;;;;24.70;43.60;;;;;;1574051;74;730;-58
2023/07/06 05:18:01;;;;;;;;;;;24.80;43.80;;;;;;1587981;74;726;-58
2023/07/06 05:20:04;;;;;;;;;;;24.70;43.90;;;;;;1590140;74;1144;-58
2023/07/06 05:22:06;;;;;;;;;;;24.70;43.90;;;;;;1581796;74;722;-59
2023/07/06 05:24:08;;;;;;;;;;;24.60;43.80;;;;;;1581610;74;1867;-58
2023/07/06 05:26:11;;;;;;;;;;;24.60;43.90;;;;;;1581409;74;789;-58
2023/07/06 05:28:12;;;;;;;;;;;24.70;44.00;;;;;;1572850;74;1927;-59
2023/07/06 05:30:15;;;;;;;;;;;24.60;43.90;;;;;;1578295;74;761;-58
2023/07/06 05:32:16;;;;;;;;;;;24.70;44.20;;;;;;1583059;74;744;-60
2023/07/06 05:34:18;;;;;;;;;;;24.70;44.40;;;;;;1573809;74;694;-59
2023/07/06 05:36:20;;;;;;;;;;;24.70;44.70;;;;;;1571542;74;1520;-57
2023/07/06 05:38:22;;;;;;;;;;;24.60;44.40;;;;;;1579725;73;1125;-56
2023/07/06 05:40:24;;;;;;;;;;;24.70;44.20;;;;;;1576154;74;758;-57
2023/07/06 05:42:26;;;;;;;;;;;24.60;44.20;;;;;;1576929;74;733;-56
2023/07/06 05:44:28;;;;;;;;;;;24.60;44.20;;;;;;1580241;73;677;-57
2023/07/06 05:46:30;;;;;;;;;;;24.60;44.30;;;;;;1585350;73;800;-59
2023/07/06 05:48:33;;;;;;;;;;;24.60;44.20;;;;;;1578379;74;1917;-57
2023/07/06 05:50:35;;;;;;;;;;;24.70;44.40;;;;;;1579925;74;1470;-57
2023/07/06 05:52:37;;;;;;;;;;;24.60;44.30;;;;;;1574969;74;1087;-57
2023/07/06 05:54:39;;;;;;;;;;;24.60;44.20;;;;;;1580871;74;775;-57
2023/07/06 05:56:41;;;;;;;;;;;24.60;44.20;;;;;;1585546;74;782;-58
2023/07/06 05:58:44;;;;;;;;;;;24.60;44.20;;;;;;1568722;74;1171;-56
2023/07/06 06:00:46;;;;;;;;;;;24.70;44.40;;;;;;1569817;74;687;-59
2023/07/06 06:02:48;;;;;;;;;;;24.70;44.50;;;;;;1580356;74;672;-58
2023/07/06 06:04:51;;;;;;;;;;;24.60;44.40;;;;;;1576439;74;1545;-56
2023/07/06 06:06:54;;;;;;;;;;;24.60;44.50;;;;;;1589468;74;752;-58
2023/07/06 06:08:56;;;;;;;;;;;24.50;44.50;;;;;;1583119;74;1918;-58
2023/07/06 06:11:00;;;;;;;;;;;24.50;44.60;;;;;;1578290;74;760;-57
2023/07/06 06:13:02;;;;;;;;;;;24.50;44.60;;;;;;1579706;74;758;-57
2023/07/06 06:15:04;;;;;;;;;;;24.50;44.60;;;;;;1575384;74;776;-58
2023/07/06 06:17:06;;;;;;;;;;;24.50;44.70;;;;;;1579220;74;705;-58
2023/07/06 06:19:08;;;;;;;;;;;24.50;44.60;;;;;;1580473;74;1387;-59
2023/07/06 06:21:10;;;;;;;;;;;24.50;44.60;;;;;;1588584;74;695;-59
2023/07/06 06:23:13;;;;;;;;;;;24.50;44.50;;;;;;1584684;74;787;-58
2023/07/06 06:25:15;;;;;;;;;;;24.60;44.40;;;;;;1585683;74;780;-58
2023/07/06 06:27:18;;;;;;;;;;;24.60;44.40;;;;;;1572464;74;774;-56
2023/07/06 06:29:19;;;;;;;;;;;24.60;44.30;;;;;;1580363;74;1931;-57
2023/07/06 06:31:21;;;;;;;;;;;24.60;44.40;;;;;;1575484;74;757;-58
2023/07/06 06:33:23;;;;;;;;;;;24.60;44.40;;;;;;1585205;74;1436;-59
2023/07/06 06:35:28;;;;;;;;;;;24.70;44.60;;;;;;1576354;74;767;-57
2023/07/06 06:37:29;;;;;;;;;;;24.80;44.40;;;;;;1584451;74;606;-60
2023/07/06 06:39:32;;;;;;;;;;;24.80;44.50;;;;;;1592868;74;1142;-57
2023/07/06 06:41:33;;;;;;;;;;;24.80;44.40;;;;;;1589425;74;715;-57
2023/07/06 06:43:37;;;;;;;;;;;24.80;44.30;;;;;;1583036;74;784;-58
2023/07/06 06:45:39;;;;;;;;;;;24.90;44.30;;;;;;1572350;74;698;-58
2023/07/06 06:47:41;;;;;;;;;;;25.00;44.00;;;;;;1572264;74;1610;-57
2023/07/06 06:49:43;;;;;;;;;;;25.00;43.60;;;;;;1583847;74;1931;-58
2023/07/06 06:51:45;;;;;;;;;;;25.00;43.80;;;;;;1578640;74;789;-57
2023/07/06 06:53:47;;;;;;;;;;;24.90;43.80;;;;;;1586444;74;1066;-58
2023/07/06 06:55:49;;;;;;;;;;;25.00;43.70;;;;;;1581962;74;810;-58
2023/07/06 06:57:52;;;;;;;;;;;25.00;43.40;;;;;;1582348;74;765;-58
2023/07/06 06:59:54;;;;;;;;;;;25.00;43.60;;;;;;1582519;74;1170;-59
2023/07/06 07:02:01;;;;;;;;;;;25.00;43.60;;;;;;1577935;74;1576;-60
2023/07/06 07:03:59;;;;;;;;;;;25.10;43.40;;;;;;1589624;74;1589;-59
2023/07/06 07:06:03;;;;;;;;;;;25.00;43.00;;;;;;1577484;74;780;-59
2023/07/06 07:08:05;;;;;;;;;;;25.10;43.10;;;;;;1581842;74;1828;-58
2023/07/06 07:10:11;;;;;;;;;;;25.10;42.70;;;;;;1586434;73;2017;-59
2023/07/06 07:12:11;;;;;;;;;;;25.10;42.60;;;;;;1570661;74;1519;-59
2023/07/06 07:14:15;;;;;;;;;;;25.00;42.30;;;;;;1570315;74;840;-58
2023/07/06 07:16:17;;;;;;;;;;;25.00;42.60;;;;;;1588831;74;1965;-59
2023/07/06 07:18:20;;;;;;;;;;;25.00;42.30;;;;;;1569096;74;1134;-58
2023/07/06 07:20:23;;;;;;;;;;;25.00;42.20;;;;;;1575066;74;766;-59
2023/07/06 07:22:27;;;;;;;;;;;25.00;42.50;;;;;;1581561;74;783;-59
2023/07/06 07:24:29;;;;;;;;;;;25.00;42.50;;;;;;1573479;74;724;-59
2023/07/06 07:26:31;;;;;;;;;;;25.00;42.40;;;;;;1579055;74;756;-59
2023/07/06 07:28:33;;;;;;;;;;;25.10;42.00;;;;;;1590334;74;1965;-58
2023/07/06 07:30:35;;;;;;;;;;;25.10;42.10;;;;;;1572504;74;1715;-59
2023/07/06 07:32:37;;;;;;;;;;;25.10;42.20;;;;;;1577073;74;782;-59
2023/07/06 07:34:38;;;;;;;;;;;25.10;41.90;;;;;;1588038;74;733;-58
2023/07/06 07:36:40;;;;;;;;;;;25.10;41.30;;;;;;1587649;74;801;-59
2023/07/06 07:38:42;;;;;;;;;;;25.00;41.90;;;;;;1581003;74;1070;-58
2023/07/06 07:40:46;;;;;;;;;;;25.00;41.80;;;;;;1572847;74;717;-58
2023/07/06 07:42:48;;;;;;;;;;;25.00;41.70;;;;;;1580345;74;1864;-58
2023/07/06 07:44:50;;;;;;;;;;;25.00;41.90;;;;;;1594167;74;808;-59
2023/07/06 07:46:51;;;;;;;;;;;25.10;41.70;;;;;;1588313;74;674;-58
2023/07/06 07:48:53;;;;;;;;;;;25.10;41.50;;;;;;1577897;74;1950;-59
2023/07/06 07:51:01;;;;;;;;;;;25.10;41.40;;;;;;1585333;74;714;-59
2023/07/06 07:53:02;;;;;;;;;;;25.10;41.50;;;;;;1574693;74;1697;-58
2023/07/06 07:55:04;;;;;;;;;;;25.10;41.00;;;;;;1577998;74;1031;-58
2023/07/06 07:57:07;;;;;;;;;;;25.10;41.00;;;;;;1577365;74;1505;-59
2023/07/06 07:59:09;;;;;;;;;;;25.10;40.70;;;;;;1574666;74;1199;-59
2023/07/06 08:01:11;;;;;;;;;;;25.10;40.70;;;;;;1573866;74;678;-59
2023/07/06 08:03:13;;;;;;;;;;;25.20;40.50;;;;;;1582191;74;736;-59
2023/07/06 08:05:16;;;;;;;;;;;25.20;40.50;;;;;;1579217;74;613;-59
2023/07/06 08:07:18;;;;;;;;;;;25.30;41.00;;;;;;1570223;74;840;-58
2023/07/06 08:09:20;;;;;;;;;;;25.30;40.90;;;;;;1581765;74;2095;-59
2023/07/06 08:11:22;;;;;;;;;;;25.20;40.20;;;;;;1585984;74;1304;-59
2023/07/06 08:13:24;;;;;;;;;;;25.10;40.50;;;;;;1571612;73;746;-58
2023/07/06 08:15:27;;;;;;;;;;;25.20;40.80;;;;;;1585928;74;705;-58
2023/07/06 08:17:29;;;;;;;;;;;25.30;41.00;;;;;;1572503;74;754;-60
2023/07/06 08:19:32;;;;;;;;;;;25.40;40.70;;;;;;1579632;74;1116;-60
2023/07/06 08:21:34;;;;;;;;;;;25.30;41.00;;;;;;1577840;74;779;-61
2023/07/06 08:23:37;;;;;;;;;;;25.30;40.40;;;;;;1575277;74;752;-60
2023/07/06 08:25:42;;;;;;;;;;;25.20;40.70;;;;;;1568794;74;1559;-59
2023/07/06 08:27:44;;;;;;;;;;;25.20;41.10;;;;;;1567306;74;791;-59
2023/07/06 08:29:46;;;;;;;;;;;25.30;41.00;;;;;;1569552;74;1937;-58
2023/07/06 08:31:49;;;;;;;;;;;25.30;41.00;;;;;;1579269;74;742;-59
2023/07/06 08:33:51;;;;;;;;;;;25.30;40.50;;;;;;1569497;74;717;-59
2023/07/06 08:35:53;;;;;;;;;;;25.30;40.80;;;;;;1574282;74;727;-59
2023/07/06 08:37:55;;;;;;;;;;;25.30;40.70;;;;;;1586314;74;710;-61
2023/07/06 08:39:57;;;;;;;;;;;25.30;41.10;;;;;;1573175;74;1320;-60
2023/07/06 08:41:59;;;;;;;;;;;25.30;41.10;;;;;;1569178;74;733;-61
2023/07/06 08:44:02;;;;;;;;;;;25.30;41.30;;;;;;1579467;74;762;-58
2023/07/06 08:46:05;;;;;;;;;;;25.40;41.30;;;;;;1568043;74;968;-59
2023/07/06 08:48:08;;;;;;;;;;;25.40;41.10;;;;;;1579587;74;1302;-59
2023/07/06 08:50:10;;;;;;;;;;;25.30;40.90;;;;;;1576629;74;1986;-59
2023/07/06 08:52:12;;;;;;;;;;;25.30;40.60;;;;;;1581629;74;780;-58
2023/07/06 08:54:16;;;;;;;;;;;25.30;40.50;;;;;;1575292;74;1542;-58
2023/07/06 08:56:18;;;;;;;;;;;25.30;40.30;;;;;;1582840;74;1594;-58
2023/07/06 08:58:33;;;;;;;;;;;25.30;40.50;;;;;;1566679;74;1196;-58
2023/07/06 09:00:35;;;;;;;;;;;25.30;40.80;;;;;;1572092;74;803;-60
2023/07/06 09:02:37;;;;;;;;;;;25.20;41.00;;;;;;1583949;74;743;-59
2023/07/06 09:04:39;;;;;;;;;;;25.30;41.20;;;;;;1580681;74;787;-58
2023/07/06 09:06:41;;;;;;;;;;;25.40;40.80;;;;;;1562679;74;720;-57
2023/07/06 09:08:45;;;;;;;;;;;25.30;40.90;;;;;;1570406;74;1504;-59
2023/07/06 09:10:48;;;;;;;;;;;25.40;41.00;;;;;;1572453;74;1934;-58
2023/07/06 09:12:52;;;;;;;;;;;25.40;40.80;;;;;;1580616;74;705;-58
2023/07/06 09:14:55;;;;;;;;;;;25.40;41.00;;;;;;1576147;74;1574;-58
2023/07/06 09:16:57;;;;;;;;;;;25.30;41.00;;;;;;1585390;74;766;-58
2023/07/06 09:18:59;;;;;;;;;;;25.40;40.90;;;;;;1575605;74;1141;-58
2023/07/06 09:21:01;;;;;;;;;;;25.40;41.00;;;;;;1569115;74;674;-58
2023/07/06 09:23:06;;;;;;;;;;;25.40;40.90;;;;;;1582580;74;1633;-57
2023/07/06 09:25:10;;;;;;;;;;;25.40;40.50;;;;;;1587497;74;850;-61
2023/07/06 09:27:17;;;;;;;;;;;25.50;40.90;;;;;;1576000;74;1108;-58
2023/07/06 09:29:25;;;;;;;;;;;25.30;40.90;;;;;;1564666;74;2054;-58
2023/07/06 09:31:26;;;;;;;;;;;25.40;40.60;;;;;;1551990;74;750;-58
2023/07/06 09:33:28;;;;;;;;;;;25.40;40.50;;;;;;1565264;74;761;-57
2023/07/06 09:35:30;;;;;;;;;;;25.40;40.10;;;;;;1564169;74;1643;-59
2023/07/06 09:37:32;;;;;;;;;;;25.30;40.20;;;;;;1580406;74;740;-58
2023/07/06 09:39:34;;;;;;;;;;;25.30;39.80;;;;;;1576452;74;1122;-58
2023/07/06 09:41:38;;;;;;;;;;;25.30;40.00;;;;;;1565524;74;587;-59
2023/07/06 09:43:41;;;;;;;;;;;25.30;39.90;;;;;;1566250;74;995;-60
2023/07/06 09:45:44;;;;;;;;;;;25.20;40.10;;;;;;1577769;74;751;-58
2023/07/06 09:47:47;;;;;;;;;;;25.30;40.40;;;;;;1565449;74;947;-59
2023/07/06 09:49:52;;;;;;;;;;;25.30;40.50;;;;;;1581002;74;1930;-58
2023/07/06 09:51:55;;;;;;;;;;;25.30;40.30;;;;;;1564505;74;1938;-57
2023/07/06 09:53:59;;;;;;;;;;;25.30;40.20;;;;;;1562886;74;1663;-57
2023/07/06 09:56:02;;;;;;;;;;;25.30;40.30;;;;;;1573862;74;1124;-61
2023/07/06 09:58:05;;;;;;;;;;;25.20;40.40;;;;;;1576509;74;1189;-59
2023/07/06 10:00:09;;;;;;;;;;;25.20;40.40;;;;;;1582826;74;749;-58
2023/07/06 10:02:20;;;;;;;;;;;25.10;40.70;;;;;;1579006;74;989;-59
2023/07/06 10:04:26;;;;;;;;;;;25.20;40.70;;;;;;1585777;74;1516;-59
2023/07/06 10:06:29;;;;;;;;;;;25.20;40.70;;;;;;1566359;74;1574;-59
2023/07/06 10:08:32;;;;;;;;;;;25.20;40.50;;;;;;1580436;74;1070;-59
2023/07/06 10:10:54;;;;;;;;;;;25.20;40.50;;;;;;1578395;74;1935;-58
2023/07/06 10:13:04;;;;;;;;;;;25.20;40.40;;;;;;1577360;74;1897;-59
2023/07/06 10:15:08;;;;;;;;;;;25.20;39.70;;;;;;1574824;74;964;-59
2023/07/06 10:17:11;;;;;;;;;;;25.10;40.10;;;;;;1583785;74;767;-60
2023/07/06 10:19:15;;;;;;;;;;;25.10;40.40;;;;;;1582947;74;1581;-58
2023/07/06 10:21:18;;;;;;;;;;;25.20;40.40;;;;;;1575053;74;2001;-59
2023/07/06 10:23:22;;;;;;;;;;;25.20;40.10;;;;;;1588316;74;1824;-57
2023/07/06 10:25:28;;;;;;;;;;;25.20;39.90;;;;;;1584624;74;1799;-58
2023/07/06 10:27:35;;;;;;;;;;;25.20;39.70;;;;;;1577181;74;1921;-58
2023/07/06 10:29:45;;;;;;;;;;;25.20;39.90;;;;;;1589894;74;1944;-57
2023/07/06 10:31:51;;;;;;;;;;;25.30;39.90;;;;;;1569111;74;1272;-58
2023/07/06 10:34:03;;;;;;;;;;;25.30;39.90;;;;;;1578270;74;1754;-57
2023/07/06 10:36:06;;;;;;;;;;;25.20;39.80;;;;;;1580898;74;755;-59
2023/07/06 10:38:10;;;;;;;;;;;25.20;39.40;;;;;;1584112;74;1161;-59
2023/07/06 10:40:23;;;;;;;;;;;25.20;39.90;;;;;;1578363;74;741;-58
2023/07/06 10:42:23;;;;;;;;;;;25.30;40.00;;;;;;1584065;74;1360;-58
2023/07/06 10:44:35;;;;;;;;;;;25.30;40.00;;;;;;1586883;74;598;-58
2023/07/06 10:46:37;;;;;;;;;;;25.30;39.80;;;;;;1581285;74;1529;-56
2023/07/06 10:48:40;;;;;;;;;;;25.30;39.90;;;;;;1585044;74;1172;-58
2023/07/06 10:50:46;;;;;;;;;;;25.30;39.90;;;;;;1542339;74;1939;-60
2023/07/06 10:53:01;;;;;;;;;;;25.30;39.80;;;;;;1581064;74;625;-58
2023/07/06 10:55:05;;;;;;;;;;;25.30;39.70;;;;;;1574792;74;1092;-56
2023/07/06 10:57:10;;;;;;;;;;;25.20;39.30;;;;;;1587579;74;918;-59
2023/07/06 10:59:18;;;;;;;;;;;25.20;38.80;;;;;;1582515;74;1121;-57
2023/07/06 11:01:20;;;;;;;;;;;25.10;39.30;;;;;;1595365;74;1506;-58
2023/07/06 11:03:23;;;;;;;;;;;25.10;39.40;;;;;;1589848;74;774;-56
2023/07/06 11:05:28;;;;;;;;;;;25.20;39.50;;;;;;1586545;74;786;-58
2023/07/06 11:07:42;;;;;;;;;;;25.20;39.70;;;;;;1590388;74;758;-57
2023/07/06 11:09:50;;;;;;;;;;;25.20;39.80;;;;;;1578219;74;1939;-60
2023/07/06 11:12:03;;;;;;;;;;;25.20;39.70;;;;;;1577566;74;660;-58
2023/07/06 11:14:12;;;;;;;;;;;25.10;39.70;;;;;;1583686;74;1534;-60
2023/07/06 11:16:16;;;;;;;;;;;25.20;39.80;;;;;;1576583;74;1040;-60
2023/07/06 11:18:25;;;;;;;;;;;25.20;39.80;;;;;;1580949;74;1142;-57
2023/07/06 11:20:28;;;;;;;;;;;25.10;39.70;;;;;;1590030;74;685;-59
2023/07/06 11:22:30;;;;;;;;;;;25.20;39.30;;;;;;1590907;74;739;-59
2023/07/06 11:24:33;;;;;;;;;;;25.20;39.70;;;;;;1589834;74;724;-58
2023/07/06 11:26:37;;;;;;;;;;;25.10;38.90;;;;;;1588864;74;661;-60
2023/07/06 11:28:40;;;;;;;;;;;25.10;38.60;;;;;;1578382;74;1371;-60
2023/07/06 11:30:59;;;;;;;;;;;25.10;39.50;;;;;;1575772;74;1895;-57
2023/07/06 11:33:06;;;;;;;;;;;25.20;39.80;;;;;;1581032;74;669;-57
2023/07/06 11:35:10;;;;;;;;;;;25.10;38.90;;;;;;1569199;74;1250;-56
2023/07/06 11:37:20;;;;;;;;;;;25.10;39.00;;;;;;1584361;74;712;-57
2023/07/06 11:39:33;;;;;;;;;;;25.10;38.70;;;;;;1589954;74;1869;-58
2023/07/06 11:41:37;;;;;;;;;;;25.00;39.50;;;;;;1566502;74;1688;-57
2023/07/06 11:43:50;;;;;;;;;;;25.10;38.70;;;;;;1583165;74;1475;-57
2023/07/06 11:46:00;;;;;;;;;;;25.10;39.00;;;;;;1591103;74;606;-57
2023/07/06 11:48:04;;;;;;;;;;;25.10;39.60;;;;;;1577365;74;1881;-58
2023/07/06 11:50:08;;;;;;;;;;;25.10;39.80;;;;;;1580273;74;1954;-58
2023/07/06 11:52:14;;;;;;;;;;;25.00;40.30;;;;;;1584105;74;1659;-57
2023/07/06 11:58:45;;;;;;;;;;;25.00;39.70;;;;;;1550670;74;1201;-60
2023/07/06 12:00:52;;;;;;;;;;;25.00;39.40;;;;;;1571180;73;1554;-60
2023/07/06 12:03:00;;;;;;;;;;;25.00;39.50;;;;;;1578736;73;1662;-60
2023/07/06 12:05:02;;;;;;;;;;;25.00;39.60;;;;;;1572844;74;777;-62
2023/07/06 12:07:08;;;;;;;;;;;25.00;39.70;;;;;;1568160;74;816;-59
2023/07/06 12:09:08;;;;;;;;;;;25.00;39.40;;;;;;1572863;74;1684;-57
2023/07/06 12:11:14;;;;;;;;;;;25.00;39.40;;;;;;1570128;74;1957;-58
2023/07/06 12:13:25;;;;;;;;;;;25.00;39.30;;;;;;1569720;74;1633;-60
2023/07/06 12:15:26;;;;;;;;;;;25.00;39.30;;;;;;1570296;74;1658;-59
2023/07/06 12:17:30;;;;;;;;;;;25.00;39.20;;;;;;1562038;74;715;-57
2023/07/06 12:19:31;;;;;;;;;;;25.00;39.30;;;;;;1564539;74;1819;-57